createdAt,value
2022-11-21T00:03:51.507Z,100131.50
2022-11-21T00:08:47.894Z,100126.91
2022-11-21T00:13:43.400Z,99907.91
2022-11-21T00:18:46.424Z,100114.97
2022-11-21T00:23:40.048Z,100100.72
2022-11-21T00:28:33.552Z,100014.69
2022-11-21T00:33:28.863Z,99863.88
2022-11-21T00:38:25.761Z,100080.63
2022-11-21T00:43:19.919Z,99853.00
2022-11-21T00:48:13.107Z,100035.53
2022-11-21T00:53:08.373Z,99963.25
2022-11-21T00:58:01.871Z,100047.97
2022-11-21T01:02:55.115Z,100025.47
2022-11-21T01:07:56.165Z,100037.56
2022-11-21T01:12:51.588Z,99970.72
2022-11-21T01:17:44.957Z,99990.56
2022-11-21T01:22:38.396Z,99901.22
2022-11-21T01:27:41.437Z,99992.09
2022-11-21T01:32:36.880Z,99849.75
2022-11-21T01:37:42.358Z,99950.09
2022-11-21T01:42:50.950Z,99999.81
2022-11-21T01:47:45.793Z,99810.41
2022-11-21T01:52:40.137Z,99936.75
2022-11-21T01:57:42.700Z,99954.03
2022-11-21T02:02:41.030Z,99967.84
2022-11-21T02:07:41.122Z,99930.03
2022-11-21T02:12:40.743Z,99921.84
2022-11-21T02:17:34.723Z,99888.88
2022-11-21T02:22:38.627Z,99703.09
2022-11-21T02:27:33.394Z,99665.28
2022-11-21T02:32:33.711Z,99858.59
2022-11-21T02:37:26.925Z,99734.97
2022-11-21T02:42:27.999Z,99875.97
2022-11-21T02:47:23.977Z,99734.84
2022-11-21T02:52:17.228Z,99786.84
2022-11-21T02:57:10.800Z,99751.16
2022-11-21T03:02:04.073Z,99798.41
2022-11-21T03:06:58.758Z,99766.84
2022-11-21T03:11:52.204Z,99809.28
2022-11-21T03:16:45.461Z,99765.34
2022-11-21T03:21:38.783Z,99678.63
2022-11-21T03:26:33.284Z,99759.31
2022-11-21T03:31:26.510Z,99685.34
2022-11-21T03:36:19.872Z,99758.13
2022-11-21T03:41:27.017Z,99788.13
2022-11-21T03:46:21.717Z,99789.09
2022-11-21T03:51:16.784Z,99787.91
2022-11-21T03:56:10.082Z,99787.16
2022-11-21T04:01:03.352Z,99901.44
2022-11-21T04:05:58.012Z,99741.50
2022-11-21T04:10:56.048Z,99947.34
2022-11-21T04:15:54.221Z,99947.09
2022-11-21T04:20:47.704Z,99859.50
2022-11-21T04:25:42.906Z,99860.84
2022-11-21T04:30:36.201Z,99750.63
2022-11-21T04:35:29.381Z,99884.63
2022-11-21T04:40:22.754Z,99808.97
2022-11-21T04:45:21.791Z,99755.50
2022-11-21T04:50:24.727Z,99734.25
2022-11-21T04:55:19.280Z,99584.88
2022-11-21T05:00:23.992Z,99767.63
2022-11-21T05:05:21.196Z,99651.22
2022-11-21T05:10:16.299Z,99550.06
2022-11-21T05:15:10.515Z,99658.88
2022-11-21T05:20:06.065Z,99763.34
2022-11-21T05:24:59.507Z,99684.88
2022-11-21T05:29:53.501Z,99769.84
2022-11-21T05:34:57.200Z,99711.94
2022-11-21T05:39:53.341Z,99763.00
2022-11-21T05:44:46.695Z,99771.78
2022-11-21T05:49:39.789Z,99766.34
2022-11-21T05:54:32.898Z,99736.84
2022-11-21T05:59:27.428Z,99741.16
2022-11-21T06:04:21.153Z,99780.91
2022-11-21T06:09:19.201Z,99674.56
2022-11-21T06:14:24.919Z,99750.75
2022-11-21T06:19:19.989Z,99791.78
2022-11-21T06:24:26.097Z,99791.66
2022-11-21T06:29:22.380Z,99661.19
2022-11-21T06:34:21.367Z,99652.69
2022-11-21T06:39:18.999Z,99693.81
2022-11-21T06:44:15.312Z,99785.03
2022-11-21T06:49:10.529Z,99799.81
2022-11-21T06:54:07.957Z,99800.53
2022-11-21T06:59:13.476Z,99672.59
2022-11-21T07:04:08.974Z,99750.09
2022-11-21T07:14:35.160Z,99804.94
2022-11-21T07:19:28.793Z,99801.72
2022-11-21T07:24:22.178Z,99813.28
2022-11-21T07:29:16.500Z,99823.84
2022-11-21T07:34:12.747Z,99678.34
2022-11-21T07:39:06.699Z,99823.28
2022-11-21T07:44:00.121Z,99742.16
2022-11-21T07:48:53.332Z,99785.97
2022-11-21T07:53:47.957Z,99856.22
2022-11-21T07:58:41.891Z,99891.63
2022-11-21T08:03:35.460Z,99917.31
2022-11-21T08:08:28.645Z,99887.72
2022-11-21T08:13:23.294Z,99937.75
2022-11-21T08:18:19.203Z,99786.75
2022-11-21T08:23:12.639Z,99903.72
2022-11-21T08:28:06.699Z,99952.78
2022-11-21T08:33:01.726Z,99791.38
2022-11-21T08:37:58.230Z,99957.97
2022-11-21T08:42:57.934Z,99947.31
2022-11-21T08:47:51.132Z,99931.28
2022-11-21T08:52:47.773Z,99974.91
2022-11-21T08:57:41.274Z,99930.06
2022-11-21T09:02:43.253Z,99895.25
2022-11-21T09:07:36.922Z,99999.66
2022-11-21T09:12:32.247Z,99997.88
2022-11-21T09:17:42.837Z,99975.53
2022-11-21T09:22:36.154Z,99958.03
2022-11-21T09:27:29.593Z,99918.19
2022-11-21T09:32:24.810Z,100017.53
2022-11-21T09:37:18.201Z,99920.53
2022-11-21T09:42:34.892Z,99874.44
2022-11-21T09:47:34.404Z,100017.13
2022-11-21T09:52:33.921Z,100007.69
2022-11-21T09:57:33.545Z,100044.38
2022-11-21T10:02:29.488Z,100052.78
2022-11-21T10:07:27.312Z,99999.41
2022-11-21T10:12:38.694Z,100040.44
2022-11-21T10:17:48.029Z,100001.50
2022-11-21T10:23:02.549Z,99934.09
2022-11-21T10:28:01.539Z,100058.56
2022-11-21T10:33:00.568Z,100027.66
2022-11-21T10:37:59.325Z,99920.91
2022-11-21T10:42:58.033Z,100068.41
2022-11-21T10:47:52.789Z,99967.84
2022-11-21T10:52:52.341Z,100041.47
2022-11-21T10:57:47.607Z,100035.06
2022-11-21T11:02:41.731Z,100059.44
2022-11-21T11:07:35.022Z,100066.91
2022-11-21T11:12:51.142Z,100087.59
2022-11-21T11:17:46.375Z,100032.41
2022-11-21T11:22:39.656Z,100094.56
2022-11-21T11:27:34.440Z,100094.44
2022-11-21T11:32:27.664Z,99965.34
2022-11-21T11:37:40.130Z,100102.94
2022-11-21T11:43:16.239Z,100062.03
2022-11-21T11:48:11.053Z,100080.69
2022-11-21T11:53:12.723Z,100127.00
2022-11-21T11:58:14.469Z,100096.84
2022-11-21T12:03:20.883Z,100065.72
2022-11-21T12:08:40.771Z,100118.66
2022-11-21T12:13:38.220Z,100115.94
2022-11-21T12:18:37.543Z,100108.28
2022-11-21T12:23:34.193Z,100107.13
2022-11-21T12:28:38.259Z,100002.50
2022-11-21T12:33:37.439Z,100075.88
2022-11-21T12:38:47.772Z,100052.19
2022-11-21T12:43:54.494Z,100090.31
2022-11-21T12:49:18.448Z,100067.94
2022-11-21T12:54:33.923Z,100145.03
2022-11-21T12:59:27.540Z,100141.75
2022-11-21T13:04:36.029Z,100138.53
2022-11-21T13:09:33.472Z,100109.19
2022-11-21T13:14:45.927Z,100147.31
2022-11-21T13:19:47.184Z,100110.22
2022-11-21T13:24:57.622Z,100110.00
2022-11-21T13:30:22.092Z,100160.66
2022-11-21T13:35:48.602Z,100112.94
2022-11-21T13:41:04.320Z,100162.56
2022-11-21T13:45:59.497Z,100170.84
2022-11-21T13:51:24.525Z,100137.41
2022-11-21T13:56:30.931Z,100189.78
2022-11-21T14:01:54.378Z,100168.09
2022-11-21T14:06:48.435Z,100105.75
2022-11-21T14:11:49.929Z,100188.91
2022-11-21T14:16:49.728Z,100176.88
2022-11-21T14:21:47.345Z,100033.50
2022-11-21T14:26:47.160Z,100222.38
2022-11-21T14:31:47.330Z,100149.22
2022-11-21T14:36:47.727Z,100241.03
2022-11-21T14:41:44.289Z,100222.91
2022-11-21T14:46:39.634Z,100246.81
2022-11-21T14:51:34.834Z,100174.34
2022-11-21T14:56:35.411Z,100081.44
2022-11-21T15:01:49.339Z,100239.31
2022-11-21T15:06:59.562Z,99949.84
2022-11-21T15:11:59.878Z,100167.59
2022-11-21T15:16:58.965Z,100185.06
2022-11-21T15:21:57.906Z,100013.81
2022-11-21T15:26:51.257Z,100257.06
2022-11-21T15:31:46.131Z,100035.03
2022-11-21T15:36:42.218Z,100111.72
2022-11-21T15:41:37.065Z,100265.03
2022-11-21T15:46:33.612Z,100236.97
2022-11-21T15:52:05.612Z,100209.03
2022-11-21T15:56:54.049Z,100040.38
2022-11-21T16:01:47.753Z,100029.38
2022-11-21T16:06:46.827Z,100197.69
2022-11-21T16:11:50.867Z,100042.22
2022-11-21T16:16:50.784Z,100154.81
2022-11-21T16:21:44.802Z,100279.34
2022-11-21T16:26:41.762Z,100115.09
2022-11-21T16:31:35.604Z,100062.00
2022-11-21T16:36:37.085Z,100196.47
2022-11-21T16:41:32.713Z,100152.75
2022-11-21T16:46:27.289Z,100192.50
2022-11-21T16:51:25.977Z,100174.53
2022-11-21T16:56:21.030Z,100220.13
2022-11-21T17:01:16.573Z,100299.44
2022-11-21T17:06:11.737Z,100210.66
2022-11-21T17:11:15.167Z,100249.09
2022-11-21T17:16:13.953Z,100052.00
2022-11-21T17:21:13.901Z,100327.78
2022-11-21T17:26:18.953Z,100179.66
2022-11-21T17:31:22.668Z,100132.09
2022-11-21T17:36:25.090Z,100256.38
2022-11-21T17:41:22.181Z,100279.66
2022-11-21T17:46:23.195Z,100110.78
2022-11-21T17:51:21.571Z,100120.19
2022-11-21T17:56:22.545Z,100090.06
2022-11-21T18:01:27.563Z,100099.97
2022-11-21T18:06:24.924Z,100258.78
2022-11-21T18:12:04.562Z,100338.38
2022-11-21T18:17:05.033Z,100338.78
2022-11-21T18:22:03.110Z,100274.53
2022-11-21T18:26:57.662Z,100276.84
2022-11-21T18:31:51.375Z,100228.47
2022-11-21T18:36:49.628Z,100280.00
2022-11-21T18:41:51.640Z,100146.75
2022-11-21T18:46:48.030Z,100285.69
2022-11-21T18:52:05.719Z,100315.19
2022-11-21T18:57:05.650Z,100300.47
2022-11-21T19:02:02.192Z,100277.16
2022-11-21T19:07:00.613Z,100404.41
2022-11-21T19:11:56.855Z,100335.66
2022-11-21T19:16:54.814Z,100241.16
2022-11-21T19:21:51.570Z,100347.16
2022-11-21T19:26:46.554Z,100416.09
2022-11-21T19:31:45.376Z,100161.06
2022-11-21T19:36:39.728Z,100456.59
2022-11-21T19:41:38.593Z,100466.50
2022-11-21T19:46:37.599Z,100458.84
2022-11-21T19:51:34.116Z,100226.84
2022-11-21T20:01:48.316Z,100460.13
2022-11-21T20:06:46.525Z,100192.44
2022-11-21T20:11:43.999Z,100397.47
2022-11-21T20:24:53.517Z,100292.34
2022-11-21T20:30:31.433Z,100210.91
2022-11-21T20:35:39.561Z,100458.44
2022-11-21T20:40:36.256Z,100263.38
2022-11-21T20:57:23.834Z,100168.00
2022-11-21T21:03:23.068Z,100488.31
2022-11-21T21:08:35.062Z,100163.34
2022-11-21T21:13:37.019Z,100254.22
2022-11-21T21:19:24.397Z,100490.69
2022-11-21T21:24:19.942Z,100474.09
2022-11-21T21:29:15.473Z,100486.91
2022-11-21T21:34:12.990Z,100406.16
2022-11-21T21:39:10.116Z,100435.13
2022-11-21T21:44:05.934Z,100509.75
2022-11-21T21:49:28.933Z,100499.38
2022-11-21T22:00:47.662Z,100438.88
2022-11-21T22:06:16.963Z,100209.28
2022-11-21T22:11:21.748Z,100284.56
2022-11-21T22:16:47.751Z,100451.25
2022-11-21T22:29:14.442Z,100542.00
2022-11-21T22:34:26.971Z,100465.38
2022-11-21T22:40:50.453Z,100569.13
2022-11-21T22:45:50.116Z,100547.06
2022-11-21T22:51:23.208Z,100305.28
2022-11-21T22:56:28.066Z,100234.50
2022-11-21T23:01:23.499Z,100534.22
2022-11-21T23:06:30.074Z,100234.91
2022-11-21T23:11:26.327Z,100546.91
2022-11-21T23:16:26.643Z,100448.44
2022-11-21T23:21:22.008Z,100418.16
2022-11-21T23:26:16.644Z,100380.91
2022-11-21T23:31:12.956Z,100329.63
2022-11-21T23:36:10.713Z,100508.28
2022-11-21T23:41:06.038Z,100410.03
2022-11-21T23:45:59.614Z,100292.56
2022-11-21T23:50:54.849Z,100525.22
2022-11-21T23:55:49.921Z,100425.31
